Time;durP1;ratioP1;P1;durP2;ratioP2;P2;SDS_P1;SDS_P2;PMS_P1;PMS_P2;Temp;Humidity;BMP_temperature;BMP_pressure;BME280_temperature;BME280_humidity;BME280_pressure;Samples;Min_cycle;Max_cycle;Signal;HPM_P1;HPM_P2
2021/08/24 00:02:15;;;;;;;;;;;23.20;52.30;;;;;;5019230;28;88455;-49
2021/08/24 00:04:41;;;;;;;;;;;23.20;52.40;;;;;;5020664;28;87762;-48
2021/08/24 00:07:06;;;;;;;;;;;23.20;52.30;;;;;;5025176;28;87244;-49
2021/08/24 00:09:32;;;;;;;;;;;23.20;52.30;;;;;;5021712;28;88376;-49
2021/08/24 00:11:58;;;;;;;;;;;23.20;52.20;;;;;;5022004;28;87256;-48
2021/08/24 00:14:23;;;;;;;;;;;23.20;52.40;;;;;;5022527;28;87719;-50
2021/08/24 00:16:49;;;;;;;;;;;23.10;52.20;;;;;;5022312;28;88669;-50
2021/08/24 00:19:14;;;;;;;;;;;23.10;52.10;;;;;;5020477;28;87197;-49
2021/08/24 00:21:40;;;;;;;;;;;23.10;52.30;;;;;;5019241;28;87112;-48
2021/08/24 00:24:06;;;;;;;;;;;23.00;52.30;;;;;;5019690;28;88140;-49
2021/08/24 00:26:32;;;;;;;;;;;23.10;52.40;;;;;;5018356;28;88087;-49
2021/08/24 00:28:57;;;;;;;;;;;23.00;52.30;;;;;;5020689;28;90010;-49
2021/08/24 00:31:23;;;;;;;;;;;23.00;52.30;;;;;;5020777;28;88091;-50
2021/08/24 00:33:48;;;;;;;;;;;23.00;52.20;;;;;;5019542;28;87900;-49
2021/08/24 00:36:15;;;;;;;;;;;23.00;52.30;;;;;;5018113;28;87932;-48
2021/08/24 00:38:41;;;;;;;;;;;23.00;52.20;;;;;;5018184;28;87109;-49
2021/08/24 00:41:07;;;;;;;;;;;22.90;52.30;;;;;;5019197;28;89028;-49
2021/08/24 00:43:34;;;;;;;;;;;22.90;52.10;;;;;;5019869;28;87381;-49
2021/08/24 00:46:12;;;;;;;;;;;22.90;52.30;;;;;;5018411;28;88779;-49
2021/08/24 00:48:40;;;;;;;;;;;22.90;52.20;;;;;;5022687;28;88680;-52
2021/08/24 00:51:05;;;;;;;;;;;22.90;52.30;;;;;;5022066;28;89608;-49
2021/08/24 00:53:32;;;;;;;;;;;22.90;52.40;;;;;;5020819;28;89564;-49
2021/08/24 00:56:00;;;;;;;;;;;22.90;52.20;;;;;;5018356;28;88544;-48
2021/08/24 00:58:25;;;;;;;;;;;22.90;52.30;;;;;;5021662;28;87185;-49
2021/08/24 01:00:51;;;;;;;;;;;22.80;52.20;;;;;;5020825;28;87513;-49
2021/08/24 01:03:18;;;;;;;;;;;22.90;52.20;;;;;;5020877;28;88245;-49
2021/08/24 01:05:45;;;;;;;;;;;22.80;52.30;;;;;;5018362;28;87147;-48
2021/08/24 01:08:29;;;;;;;;;;;22.80;52.30;;;;;;5018253;28;88302;-49
2021/08/24 01:11:04;;;;;;;;;;;22.80;52.20;;;;;;5018015;28;88982;-48
2021/08/24 01:13:40;;;;;;;;;;;22.80;52.10;;;;;;5023108;28;87169;-48
2021/08/24 01:16:12;;;;;;;;;;;22.70;52.20;;;;;;5017177;28;89086;-48
2021/08/24 01:18:45;;;;;;;;;;;22.70;52.10;;;;;;5020951;28;88581;-50
2021/08/24 01:21:34;;;;;;;;;;;22.70;52.20;;;;;;5018939;28;87134;-50
2021/08/24 01:24:20;;;;;;;;;;;22.70;52.10;;;;;;5019461;28;87569;-48
2021/08/24 01:26:51;;;;;;;;;;;22.70;52.20;;;;;;5017499;28;87162;-49
2021/08/24 01:29:25;;;;;;;;;;;22.60;52.10;;;;;;5017235;28;89232;-48
2021/08/24 01:31:54;;;;;;;;;;;22.70;52.20;;;;;;5017081;28;88614;-48
2021/08/24 01:34:25;;;;;;;;;;;22.70;52.10;;;;;;5023460;28;86540;-48
2021/08/24 01:37:01;;;;;;;;;;;22.60;52.10;;;;;;5019981;28;87483;-49
2021/08/24 01:39:32;;;;;;;;;;;22.60;52.10;;;;;;5021793;28;87208;-50
2021/08/24 01:42:16;;;;;;;;;;;22.60;52.10;;;;;;5021293;28;88052;-50
2021/08/24 01:44:45;;;;;;;;;;;22.60;52.00;;;;;;5017758;28;89850;-49
2021/08/24 01:47:13;;;;;;;;;;;22.50;52.10;;;;;;5020214;28;88723;-48
2021/08/24 01:49:41;;;;;;;;;;;22.50;52.00;;;;;;5020214;28;87144;-49
2021/08/24 01:52:11;;;;;;;;;;;22.50;52.10;;;;;;5018021;28;88348;-49
2021/08/24 01:54:43;;;;;;;;;;;22.50;52.10;;;;;;5018566;28;87226;-50
2021/08/24 01:57:12;;;;;;;;;;;22.50;52.10;;;;;;5020938;28;89044;-48
2021/08/24 01:59:47;;;;;;;;;;;22.50;52.10;;;;;;5021505;28;86396;-49
2021/08/24 02:02:15;;;;;;;;;;;22.50;52.10;;;;;;5016715;28;88428;-50
2021/08/24 02:04:45;;;;;;;;;;;22.40;52.00;;;;;;5020060;28;89435;-49
2021/08/24 02:07:12;;;;;;;;;;;22.40;52.00;;;;;;5019488;28;88074;-48
2021/08/24 02:09:39;;;;;;;;;;;22.40;52.20;;;;;;5019210;28;88390;-49
2021/08/24 02:12:06;;;;;;;;;;;22.40;52.00;;;;;;5016651;28;89876;-48
2021/08/24 02:14:33;;;;;;;;;;;22.40;52.00;;;;;;5016512;28;88892;-48
2021/08/24 02:17:00;;;;;;;;;;;22.40;52.10;;;;;;5021476;28;87414;-48
2021/08/24 02:19:28;;;;;;;;;;;22.30;52.00;;;;;;5022821;28;89629;-49
2021/08/24 02:22:02;;;;;;;;;;;22.30;52.00;;;;;;5017445;28;87287;-48
2021/08/24 02:24:31;;;;;;;;;;;22.30;52.10;;;;;;5021093;28;87562;-49
2021/08/24 02:26:58;;;;;;;;;;;22.30;52.10;;;;;;5018311;28;88527;-48
2021/08/24 02:29:23;;;;;;;;;;;22.30;52.10;;;;;;5019172;28;87811;-50
2021/08/24 02:31:53;;;;;;;;;;;22.30;52.10;;;;;;5015523;28;89095;-50
2021/08/24 02:34:34;;;;;;;;;;;22.20;52.00;;;;;;5018423;28;87416;-49
2021/08/24 02:37:07;;;;;;;;;;;22.30;52.10;;;;;;5016555;28;88618;-49
2021/08/24 02:39:36;;;;;;;;;;;22.20;52.10;;;;;;5020904;28;88326;-51
2021/08/24 02:42:10;;;;;;;;;;;22.20;52.10;;;;;;5020562;28;87332;-49
2021/08/24 02:44:37;;;;;;;;;;;22.20;52.10;;;;;;5020295;28;88223;-49
2021/08/24 02:47:04;;;;;;;;;;;22.20;52.10;;;;;;5019010;28;87956;-49
2021/08/24 02:49:31;;;;;;;;;;;22.20;52.10;;;;;;5018740;28;87941;-49
2021/08/24 02:51:57;;;;;;;;;;;22.10;52.10;;;;;;5016827;28;87185;-48
2021/08/24 02:54:27;;;;;;;;;;;22.10;52.00;;;;;;5016935;28;87114;-48
2021/08/24 02:56:54;;;;;;;;;;;22.10;52.10;;;;;;5017559;28;88064;-50
2021/08/24 02:59:20;;;;;;;;;;;22.10;51.90;;;;;;5017636;28;89607;-48
2021/08/24 03:01:46;;;;;;;;;;;22.10;52.00;;;;;;5018970;28;87137;-48
2021/08/24 03:04:12;;;;;;;;;;;22.10;52.10;;;;;;5022755;28;87118;-49
2021/08/24 03:06:40;;;;;;;;;;;22.00;52.00;;;;;;5019576;28;87187;-48
2021/08/24 03:09:07;;;;;;;;;;;22.00;52.00;;;;;;5017952;28;89049;-48
2021/08/24 03:11:38;;;;;;;;;;;22.00;52.10;;;;;;5018664;28;88720;-48
2021/08/24 03:14:13;;;;;;;;;;;22.00;52.10;;;;;;5019175;28;87837;-48
2021/08/24 03:16:48;;;;;;;;;;;22.00;52.20;;;;;;5017538;28;87202;-50
2021/08/24 03:19:17;;;;;;;;;;;22.00;52.10;;;;;;5018198;28;88311;-48
2021/08/24 03:21:43;;;;;;;;;;;22.00;52.10;;;;;;5018321;28;88806;-48
2021/08/24 03:24:10;;;;;;;;;;;21.90;52.10;;;;;;5020858;28;88449;-50
2021/08/24 03:26:38;;;;;;;;;;;21.90;52.10;;;;;;5019860;28;87138;-49
2021/08/24 03:29:11;;;;;;;;;;;21.90;52.00;;;;;;5015560;28;88922;-48
2021/08/24 03:31:37;;;;;;;;;;;21.90;52.10;;;;;;5017221;28;87666;-48
2021/08/24 03:34:03;;;;;;;;;;;21.90;52.10;;;;;;5017057;28;87103;-48
2021/08/24 03:36:29;;;;;;;;;;;21.80;52.10;;;;;;5017640;28;88605;-51
2021/08/24 03:38:54;;;;;;;;;;;21.80;52.00;;;;;;5018090;28;87774;-49
2021/08/24 03:41:20;;;;;;;;;;;21.80;52.10;;;;;;5018895;28;87151;-48
2021/08/24 03:43:45;;;;;;;;;;;21.80;52.20;;;;;;5020146;28;87773;-50
2021/08/24 03:46:11;;;;;;;;;;;21.80;52.10;;;;;;5019614;28;89544;-48
2021/08/24 03:48:36;;;;;;;;;;;21.70;52.00;;;;;;5015709;28;87477;-48
2021/08/24 03:51:02;;;;;;;;;;;21.70;52.10;;;;;;5016356;28;88842;-48
2021/08/24 03:53:28;;;;;;;;;;;21.70;52.10;;;;;;5018047;28;87189;-48
2021/08/24 03:55:53;;;;;;;;;;;21.70;52.10;;;;;;5019293;28;87138;-48
2021/08/24 03:58:19;;;;;;;;;;;21.70;52.10;;;;;;5018855;28;88511;-49
2021/08/24 04:00:45;;;;;;;;;;;21.70;52.10;;;;;;5019250;28;87150;-47
2021/08/24 04:03:11;;;;;;;;;;;21.60;52.10;;;;;;5020395;28;86605;-51
2021/08/24 04:05:37;;;;;;;;;;;21.70;52.10;;;;;;5018052;28;89597;-49
2021/08/24 04:08:03;;;;;;;;;;;21.60;52.10;;;;;;5020635;28;88764;-49
2021/08/24 04:10:28;;;;;;;;;;;21.60;52.20;;;;;;5018474;28;88497;-48
2021/08/24 04:12:54;;;;;;;;;;;21.60;52.20;;;;;;5020370;28;87190;-48
2021/08/24 04:15:19;;;;;;;;;;;21.60;52.20;;;;;;5020539;28;87127;-49
2021/08/24 04:17:45;;;;;;;;;;;21.60;52.10;;;;;;5021586;28;87128;-48
2021/08/24 04:20:11;;;;;;;;;;;21.50;52.20;;;;;;5023128;28;87143;-48
2021/08/24 04:25:23;;;;;;;;;;;21.50;52.20;;;;;;5022778;28;87138;-50
2021/08/24 04:27:49;;;;;;;;;;;21.50;52.20;;;;;;5021459;28;87122;-50
2021/08/24 04:30:14;;;;;;;;;;;21.50;52.20;;;;;;5021135;28;88158;-48
2021/08/24 04:32:45;;;;;;;;;;;21.50;52.30;;;;;;5019769;28;87099;-49
2021/08/24 04:35:11;;;;;;;;;;;21.50;52.20;;;;;;5019002;28;88082;-49
2021/08/24 04:37:37;;;;;;;;;;;21.40;52.20;;;;;;5019408;28;87672;-48
2021/08/24 04:40:03;;;;;;;;;;;21.40;52.30;;;;;;5020663;28;87125;-48
2021/08/24 04:42:28;;;;;;;;;;;21.40;52.30;;;;;;5020285;28;89291;-48
2021/08/24 04:44:54;;;;;;;;;;;21.40;53.00;;;;;;5021011;28;88194;-48
2021/08/24 04:47:19;;;;;;;;;;;21.40;52.30;;;;;;5021618;28;87115;-48
2021/08/24 04:49:45;;;;;;;;;;;21.40;52.40;;;;;;5022671;28;87638;-52
2021/08/24 04:52:10;;;;;;;;;;;21.40;52.40;;;;;;5022937;28;88842;-48
2021/08/24 04:54:36;;;;;;;;;;;21.30;52.50;;;;;;5018194;28;87174;-48
2021/08/24 04:57:02;;;;;;;;;;;21.40;52.40;;;;;;5018842;28;89565;-49
2021/08/24 04:59:28;;;;;;;;;;;21.30;52.40;;;;;;5017921;28;88057;-49
2021/08/24 05:01:54;;;;;;;;;;;21.30;52.50;;;;;;5019288;28;88334;-50
2021/08/24 05:04:19;;;;;;;;;;;21.30;52.40;;;;;;5019760;28;87848;-51
2021/08/24 05:06:45;;;;;;;;;;;21.30;52.40;;;;;;5021177;28;87209;-49
2021/08/24 05:09:10;;;;;;;;;;;21.30;52.50;;;;;;5022330;28;88639;-50
2021/08/24 05:11:36;;;;;;;;;;;21.20;52.50;;;;;;5019365;28;88160;-51
2021/08/24 05:14:01;;;;;;;;;;;21.30;52.60;;;;;;5020404;28;87182;-51
2021/08/24 05:16:27;;;;;;;;;;;21.30;52.70;;;;;;5018682;28;88082;-53
2021/08/24 05:18:52;;;;;;;;;;;21.30;52.70;;;;;;5016894;28;88001;-52
2021/08/24 05:21:18;;;;;;;;;;;21.20;52.60;;;;;;5017781;28;88813;-48
2021/08/24 05:23:44;;;;;;;;;;;21.20;53.30;;;;;;5017374;28;89233;-52
2021/08/24 05:26:11;;;;;;;;;;;21.20;52.60;;;;;;5019502;28;87111;-54
2021/08/24 05:28:36;;;;;;;;;;;21.20;52.70;;;;;;5017343;28;88763;-50
2021/08/24 05:31:02;;;;;;;;;;;21.20;52.80;;;;;;5017959;28;88693;-53
2021/08/24 05:33:28;;;;;;;;;;;21.20;52.70;;;;;;5020567;28;87163;-49
2021/08/24 05:35:54;;;;;;;;;;;21.20;52.80;;;;;;5018222;28;89714;-53
2021/08/24 05:38:19;;;;;;;;;;;21.20;52.80;;;;;;5019863;28;87186;-54
2021/08/24 05:40:45;;;;;;;;;;;21.10;52.80;;;;;;5020323;28;86897;-49
2021/08/24 05:43:10;;;;;;;;;;;21.20;52.90;;;;;;5019866;28;87321;-48
2021/08/24 05:45:36;;;;;;;;;;;21.20;52.90;;;;;;5019311;28;87207;-51
2021/08/24 05:48:01;;;;;;;;;;;21.10;53.00;;;;;;5018146;28;88127;-49
2021/08/24 05:50:27;;;;;;;;;;;21.10;53.00;;;;;;5017430;28;89126;-52
2021/08/24 05:52:53;;;;;;;;;;;21.10;53.10;;;;;;5016864;28;87163;-48
2021/08/24 05:55:19;;;;;;;;;;;21.10;53.20;;;;;;5024336;28;87534;-49
2021/08/24 05:57:44;;;;;;;;;;;21.10;53.10;;;;;;5020788;28;87187;-50
2021/08/24 06:00:10;;;;;;;;;;;21.10;53.20;;;;;;5020422;28;87262;-49
2021/08/24 06:02:36;;;;;;;;;;;21.10;53.30;;;;;;5020298;28;89906;-48
2021/08/24 06:05:03;;;;;;;;;;;21.10;53.30;;;;;;5021636;28;86393;-52
2021/08/24 06:07:28;;;;;;;;;;;21.10;53.30;;;;;;5020830;28;87679;-48
2021/08/24 06:09:54;;;;;;;;;;;21.00;53.20;;;;;;5020827;28;88922;-51
2021/08/24 06:12:20;;;;;;;;;;;21.00;53.30;;;;;;5018516;28;88149;-52
2021/08/24 06:14:45;;;;;;;;;;;21.00;53.40;;;;;;5015788;28;91307;-48
2021/08/24 06:17:11;;;;;;;;;;;21.10;53.50;;;;;;5019923;28;87841;-50
2021/08/24 06:19:36;;;;;;;;;;;21.10;53.50;;;;;;5016755;28;87094;-49
2021/08/24 06:22:02;;;;;;;;;;;21.10;53.60;;;;;;5015635;28;90541;-48
2021/08/24 06:24:28;;;;;;;;;;;21.10;53.50;;;;;;5017561;28;87146;-53
2021/08/24 06:26:53;;;;;;;;;;;21.10;53.60;;;;;;5016399;28;89008;-48
2021/08/24 06:29:19;;;;;;;;;;;21.00;53.60;;;;;;5017192;28;87702;-49
2021/08/24 06:31:46;;;;;;;;;;;21.00;53.60;;;;;;5015924;28;87230;-49
2021/08/24 06:34:13;;;;;;;;;;;21.10;53.70;;;;;;5017106;28;89471;-53
2021/08/24 06:36:39;;;;;;;;;;;21.00;53.70;;;;;;5016248;28;88988;-52
2021/08/24 06:39:06;;;;;;;;;;;21.00;53.70;;;;;;5018962;28;87152;-48
2021/08/24 06:41:31;;;;;;;;;;;21.00;53.70;;;;;;5020819;28;88186;-51
2021/08/24 06:43:57;;;;;;;;;;;21.00;53.80;;;;;;5017699;28;88046;-48
2021/08/24 06:46:22;;;;;;;;;;;21.10;53.80;;;;;;5016840;28;87723;-49
2021/08/24 06:48:48;;;;;;;;;;;21.10;53.80;;;;;;5017467;28;87763;-49
2021/08/24 06:51:14;;;;;;;;;;;21.00;53.80;;;;;;5017113;28;87125;-52
2021/08/24 06:53:41;;;;;;;;;;;21.00;53.80;;;;;;5017920;28;87185;-49
2021/08/24 06:56:11;;;;;;;;;;;21.00;53.90;;;;;;5020196;28;89732;-54
2021/08/24 06:58:37;;;;;;;;;;;21.00;53.80;;;;;;5017155;28;88510;-49
2021/08/24 07:01:03;;;;;;;;;;;21.00;53.90;;;;;;5018281;28;88148;-50
2021/08/24 07:03:28;;;;;;;;;;;21.00;53.80;;;;;;5017299;28;87121;-48
2021/08/24 07:05:54;;;;;;;;;;;21.00;53.80;;;;;;5018726;28;87253;-48
2021/08/24 07:08:19;;;;;;;;;;;21.00;53.90;;;;;;5019612;28;88312;-54
2021/08/24 07:10:47;;;;;;;;;;;21.10;54.10;;;;;;5018770;28;88132;-50
2021/08/24 07:13:12;;;;;;;;;;;21.00;53.80;;;;;;5019105;28;89020;-49
2021/08/24 07:15:38;;;;;;;;;;;21.00;54.20;;;;;;5019349;28;89428;-51
2021/08/24 07:18:04;;;;;;;;;;;21.00;54.10;;;;;;5020569;28;86385;-49
2021/08/24 07:20:30;;;;;;;;;;;21.00;54.10;;;;;;5019554;28;87993;-51
2021/08/24 07:22:57;;;;;;;;;;;21.00;54.10;;;;;;5023459;28;88236;-54
2021/08/24 07:25:23;;;;;;;;;;;21.00;54.00;;;;;;5017810;28;89011;-52
2021/08/24 07:27:49;;;;;;;;;;;21.00;53.90;;;;;;5018235;28;89550;-53
2021/08/24 07:30:14;;;;;;;;;;;21.10;54.10;;;;;;5019805;28;87135;-51
2021/08/24 07:32:40;;;;;;;;;;;21.10;54.10;;;;;;5020291;28;87475;-50
2021/08/24 07:35:06;;;;;;;;;;;21.10;54.10;;;;;;5019324;28;88283;-49
2021/08/24 07:37:31;;;;;;;;;;;21.00;53.90;;;;;;5020000;28;87164;-50
2021/08/24 07:39:57;;;;;;;;;;;21.10;54.00;;;;;;5018082;28;88837;-50
2021/08/24 07:42:22;;;;;;;;;;;21.00;54.00;;;;;;5019809;28;87550;-50
2021/08/24 07:44:48;;;;;;;;;;;21.10;54.00;;;;;;5020529;28;87145;-48
2021/08/24 07:47:13;;;;;;;;;;;21.10;54.20;;;;;;5021361;28;88271;-51
2021/08/24 07:49:39;;;;;;;;;;;21.00;54.10;;;;;;5022060;28;88124;-54
2021/08/24 07:52:07;;;;;;;;;;;21.10;54.00;;;;;;5023429;28;88086;-49
2021/08/24 07:54:33;;;;;;;;;;;21.10;54.30;;;;;;5022143;28;87587;-53
2021/08/24 07:56:58;;;;;;;;;;;21.00;54.20;;;;;;5021616;28;87137;-49
2021/08/24 07:59:24;;;;;;;;;;;21.10;54.10;;;;;;5020640;28;87582;-49
2021/08/24 08:01:53;;;;;;;;;;;21.10;54.10;;;;;;5019451;28;87706;-51
2021/08/24 08:04:19;;;;;;;;;;;21.10;54.10;;;;;;5024663;28;87133;-53
2021/08/24 08:06:45;;;;;;;;;;;21.10;54.20;;;;;;5021961;28;87939;-52
2021/08/24 08:09:11;;;;;;;;;;;21.10;54.10;;;;;;5022829;28;87160;-49
2021/08/24 08:11:37;;;;;;;;;;;21.10;54.20;;;;;;5023224;28;88747;-53
2021/08/24 08:14:02;;;;;;;;;;;21.10;54.20;;;;;;5019803;28;90324;-52
2021/08/24 08:16:28;;;;;;;;;;;21.10;54.20;;;;;;5018829;28;87224;-55
2021/08/24 08:18:53;;;;;;;;;;;21.10;54.20;;;;;;5020016;28;88665;-48
2021/08/24 08:21:19;;;;;;;;;;;21.10;54.20;;;;;;5020951;28;88223;-53
2021/08/24 08:23:45;;;;;;;;;;;21.10;54.10;;;;;;5020086;28;87169;-52
2021/08/24 08:26:11;;;;;;;;;;;21.10;54.10;;;;;;5021572;28;88919;-49
2021/08/24 08:28:36;;;;;;;;;;;21.20;54.20;;;;;;5018264;28;87167;-48
2021/08/24 08:31:03;;;;;;;;;;;21.20;54.40;;;;;;5019299;28;88211;-50
2021/08/24 08:33:29;;;;;;;;;;;21.10;54.30;;;;;;5020038;28;89685;-49
2021/08/24 08:35:55;;;;;;;;;;;21.20;54.40;;;;;;5018555;28;88639;-52
2021/08/24 08:38:22;;;;;;;;;;;21.20;54.30;;;;;;5018827;28;88055;-53
2021/08/24 08:40:48;;;;;;;;;;;21.20;54.40;;;;;;5019087;28;89783;-48
2021/08/24 08:43:29;;;;;;;;;;;21.20;54.40;;;;;;5018849;28;87124;-53
2021/08/24 08:45:56;;;;;;;;;;;21.20;54.30;;;;;;5019958;28;87176;-49
2021/08/24 08:48:30;;;;;;;;;;;21.20;55.00;;;;;;5020493;28;88716;-49
2021/08/24 08:51:14;;;;;;;;;;;21.20;54.40;;;;;;5020057;28;87660;-48
2021/08/24 08:53:49;;;;;;;;;;;21.20;54.40;;;;;;5020939;28;89501;-48
2021/08/24 08:56:25;;;;;;;;;;;21.20;54.40;;;;;;5021795;28;87244;-48
2021/08/24 08:59:05;;;;;;;;;;;21.20;54.30;;;;;;5022047;28;87157;-51
2021/08/24 09:01:37;;;;;;;;;;;21.20;54.30;;;;;;5021519;28;89956;-50
2021/08/24 09:04:23;;;;;;;;;;;21.30;54.20;;;;;;5021486;28;88185;-52
2021/08/24 09:06:49;;;;;;;;;;;21.30;54.20;;;;;;5022149;28;87854;-48
2021/08/24 09:09:16;;;;;;;;;;;21.30;54.10;;;;;;5020912;28;87697;-49
2021/08/24 09:11:45;;;;;;;;;;;21.30;54.20;;;;;;5023791;28;87145;-50
2021/08/24 09:14:32;;;;;;;;;;;21.30;54.70;;;;;;5018263;28;88733;-48
2021/08/24 09:17:03;;;;;;;;;;;21.40;54.30;;;;;;5021506;28;87212;-54
2021/08/24 09:19:34;;;;;;;;;;;21.40;54.30;;;;;;5021694;28;87850;-50
2021/08/24 09:22:00;;;;;;;;;;;21.40;54.20;;;;;;5021119;28;87406;-54
2021/08/24 09:24:27;;;;;;;;;;;21.40;54.10;;;;;;5020638;28;87173;-52
2021/08/24 09:26:53;;;;;;;;;;;21.40;54.10;;;;;;5020563;28;87757;-49
2021/08/24 09:29:20;;;;;;;;;;;21.40;54.00;;;;;;5020216;28;90894;-49
2021/08/24 09:31:46;;;;;;;;;;;21.40;54.00;;;;;;5019227;28;87112;-49
2021/08/24 09:34:14;;;;;;;;;;;21.40;54.00;;;;;;5021242;28;87280;-48
2021/08/24 09:36:40;;;;;;;;;;;21.50;54.00;;;;;;5019090;28;89052;-48
2021/08/24 09:39:05;;;;;;;;;;;21.50;54.00;;;;;;5017832;28;87154;-49
2021/08/24 09:41:32;;;;;;;;;;;21.50;54.10;;;;;;5018764;28;87674;-54
2021/08/24 09:44:16;;;;;;;;;;;21.50;54.20;;;;;;5018019;28;87193;-48
2021/08/24 09:46:42;;;;;;;;;;;21.50;54.10;;;;;;5022091;28;86690;-49
2021/08/24 09:49:27;;;;;;;;;;;21.60;54.10;;;;;;5020855;28;88544;-55
2021/08/24 09:51:57;;;;;;;;;;;21.60;54.10;;;;;;5017196;28;87191;-51
2021/08/24 09:54:29;;;;;;;;;;;21.60;54.00;;;;;;5020478;28;88172;-48
2021/08/24 09:57:17;;;;;;;;;;;21.60;53.90;;;;;;5017851;28;87155;-48
2021/08/24 09:59:53;;;;;;;;;;;21.60;53.90;;;;;;5017459;28;89389;-53
2021/08/24 10:02:28;;;;;;;;;;;21.60;54.10;;;;;;5020182;28;88192;-49
2021/08/24 10:04:56;;;;;;;;;;;21.60;54.00;;;;;;5017774;28;87162;-50
2021/08/24 10:07:40;;;;;;;;;;;21.70;54.00;;;;;;5020142;28;87871;-48
2021/08/24 10:10:08;;;;;;;;;;;21.70;54.20;;;;;;5019944;28;89525;-49
2021/08/24 10:12:34;;;;;;;;;;;21.70;54.20;;;;;;5019192;28;86463;-50
2021/08/24 10:15:19;;;;;;;;;;;21.70;54.20;;;;;;5018124;28;88700;-48
2021/08/24 10:17:44;;;;;;;;;;;21.70;54.10;;;;;;5020522;28;88105;-53
2021/08/24 10:20:29;;;;;;;;;;;21.70;54.10;;;;;;5016494;28;88862;-49
2021/08/24 10:22:55;;;;;;;;;;;21.70;54.20;;;;;;5018219;28;89383;-48
2021/08/24 10:25:35;;;;;;;;;;;21.80;54.10;;;;;;5018379;28;87158;-53
2021/08/24 10:28:05;;;;;;;;;;;21.80;54.20;;;;;;5019518;28;88138;-54
2021/08/24 10:30:42;;;;;;;;;;;21.80;54.10;;;;;;5019363;28;89376;-48
2021/08/24 10:33:14;;;;;;;;;;;21.80;54.10;;;;;;5019161;28;87162;-53
2021/08/24 10:35:42;;;;;;;;;;;21.90;54.10;;;;;;5017089;28;87548;-50
2021/08/24 10:38:15;;;;;;;;;;;21.90;54.20;;;;;;5020415;28;89250;-53
2021/08/24 10:40:42;;;;;;;;;;;21.90;54.20;;;;;;5020068;28;87225;-49
2021/08/24 10:43:11;;;;;;;;;;;21.90;54.30;;;;;;5019707;28;89473;-52
2021/08/24 10:45:41;;;;;;;;;;;21.90;54.10;;;;;;5017157;28;88133;-52
2021/08/24 10:48:14;;;;;;;;;;;22.00;54.20;;;;;;5017728;28;89317;-49
2021/08/24 10:50:57;;;;;;;;;;;22.00;54.20;;;;;;5018847;28;88978;-49
2021/08/24 10:53:41;;;;;;;;;;;22.00;54.10;;;;;;5016172;28;87157;-51
2021/08/24 10:56:12;;;;;;;;;;;22.00;54.20;;;;;;5016932;28;87571;-48
2021/08/24 10:58:41;;;;;;;;;;;22.10;54.70;;;;;;5017082;28;88245;-54
2021/08/24 11:01:29;;;;;;;;;;;22.10;54.10;;;;;;5019316;28;87122;-49
2021/08/24 11:04:04;;;;;;;;;;;22.10;54.00;;;;;;5018677;28;87186;-53
2021/08/24 11:06:35;;;;;;;;;;;22.10;54.00;;;;;;5016088;28;87129;-49
2021/08/24 11:09:01;;;;;;;;;;;22.20;53.90;;;;;;5017347;28;88761;-53
2021/08/24 11:11:39;;;;;;;;;;;22.20;53.80;;;;;;5015083;28;90736;-49
2021/08/24 11:14:27;;;;;;;;;;;22.20;53.80;;;;;;5018544;28;88038;-50
2021/08/24 11:17:12;;;;;;;;;;;22.20;53.80;;;;;;5014532;28;87832;-49
2021/08/24 11:19:55;;;;;;;;;;;22.30;53.80;;;;;;5020254;28;88111;-51
2021/08/24 11:22:30;;;;;;;;;;;22.30;53.80;;;;;;5017913;28;87185;-54
2021/08/24 11:25:16;;;;;;;;;;;22.30;53.80;;;;;;5020036;28;87170;-50
2021/08/24 11:27:56;;;;;;;;;;;22.30;53.70;;;;;;5017203;28;87175;-49
2021/08/24 11:30:31;;;;;;;;;;;22.30;53.70;;;;;;5020065;28;88844;-49
2021/08/24 11:33:01;;;;;;;;;;;22.40;53.30;;;;;;5019610;28;88726;-55
2021/08/24 11:35:50;;;;;;;;;;;22.50;53.50;;;;;;5018886;28;87230;-51
2021/08/24 11:38:21;;;;;;;;;;;22.50;53.40;;;;;;5015292;28;89335;-48
2021/08/24 11:40:58;;;;;;;;;;;22.50;53.40;;;;;;5015194;28;88477;-49
2021/08/24 11:43:43;;;;;;;;;;;22.50;53.40;;;;;;5018451;28;87190;-52
2021/08/24 11:46:14;;;;;;;;;;;22.60;53.30;;;;;;5018851;28;88621;-49
2021/08/24 11:48:42;;;;;;;;;;;22.60;53.10;;;;;;5017072;28;87999;-52
2021/08/24 11:51:26;;;;;;;;;;;22.60;54.00;;;;;;5021804;28;87281;-53
2021/08/24 11:53:54;;;;;;;;;;;22.60;53.50;;;;;;5015243;28;88560;-53
2021/08/24 11:56:23;;;;;;;;;;;22.60;53.50;;;;;;5017971;28;86399;-49
2021/08/24 11:58:48;;;;;;;;;;;22.60;53.30;;;;;;5019482;28;88438;-48
2021/08/24 12:01:22;;;;;;;;;;;22.70;53.10;;;;;;5018016;28;89732;-52
2021/08/24 12:03:52;;;;;;;;;;;22.70;53.20;;;;;;5019020;28;88079;-51
2021/08/24 12:06:44;;;;;;;;;;;22.70;53.10;;;;;;5019748;28;90029;-49
2021/08/24 12:09:18;;;;;;;;;;;22.70;53.00;;;;;;5015576;28;88802;-50
2021/08/24 12:11:48;;;;;;;;;;;22.80;53.10;;;;;;5021910;28;87156;-53
2021/08/24 12:14:34;;;;;;;;;;;22.80;52.90;;;;;;5018320;28;89631;-52
2021/08/24 12:17:05;;;;;;;;;;;22.80;52.70;;;;;;4995321;28;87304;-48
2021/08/24 12:19:33;;;;;;;;;;;22.90;52.50;;;;;;5015438;28;88701;-49
2021/08/24 12:22:03;;;;;;;;;;;22.90;52.50;;;;;;5019404;28;88584;-49
2021/08/24 12:24:30;;;;;;;;;;;22.90;52.80;;;;;;5018800;28;87164;-49
2021/08/24 12:26:55;;;;;;;;;;;22.90;52.10;;;;;;5016806;28;87172;-53
2021/08/24 12:29:34;;;;;;;;;;;23.00;52.60;;;;;;5016468;28;88458;-50
2021/08/24 12:32:01;;;;;;;;;;;23.00;52.10;;;;;;5021985;28;87151;-50
2021/08/24 12:34:35;;;;;;;;;;;23.00;52.10;;;;;;5022312;28;87124;-50
2021/08/24 12:37:05;;;;;;;;;;;23.00;51.70;;;;;;5021234;28;87260;-54
2021/08/24 12:39:46;;;;;;;;;;;23.10;52.00;;;;;;5021947;28;87127;-49
2021/08/24 12:42:19;;;;;;;;;;;23.10;52.00;;;;;;5020367;28;87696;-52
2021/08/24 12:44:46;;;;;;;;;;;23.10;51.60;;;;;;5021331;28;88856;-49
2021/08/24 12:47:30;;;;;;;;;;;23.10;51.50;;;;;;5020891;28;87609;-49
2021/08/24 12:50:08;;;;;;;;;;;23.20;51.40;;;;;;5021188;28;89854;-49
2021/08/24 12:52:37;;;;;;;;;;;23.20;51.60;;;;;;5017666;28;88140;-49
2021/08/24 12:55:05;;;;;;;;;;;23.20;51.30;;;;;;5019023;28;88079;-49
2021/08/24 12:57:34;;;;;;;;;;;23.20;51.10;;;;;;5024191;28;88666;-53
2021/08/24 13:00:11;;;;;;;;;;;23.20;51.40;;;;;;5021751;28;88414;-49
2021/08/24 13:02:38;;;;;;;;;;;23.30;51.40;;;;;;5019391;28;87508;-50
2021/08/24 13:05:12;;;;;;;;;;;23.20;51.20;;;;;;5017898;28;87096;-54
2021/08/24 13:07:38;;;;;;;;;;;23.30;51.40;;;;;;5019851;28;87121;-48
2021/08/24 13:10:09;;;;;;;;;;;23.30;51.10;;;;;;5018664;28;88889;-50
2021/08/24 13:12:37;;;;;;;;;;;23.30;50.90;;;;;;5020038;28;87029;-48
2021/08/24 13:15:04;;;;;;;;;;;23.40;50.60;;;;;;5020665;28;88570;-51
2021/08/24 13:17:30;;;;;;;;;;;23.40;50.40;;;;;;5018130;28;90198;-49
2021/08/24 13:19:57;;;;;;;;;;;23.40;50.40;;;;;;5020311;28;88093;-49
2021/08/24 13:22:34;;;;;;;;;;;23.40;50.60;;;;;;5021110;28;88105;-49
2021/08/24 13:25:02;;;;;;;;;;;23.50;50.50;;;;;;5019317;28;87188;-51
2021/08/24 13:27:31;;;;;;;;;;;23.90;46.00;;;;;;5023793;28;90055;-60
2021/08/24 13:29:59;;;;;;;;;;;24.50;44.10;;;;;;5039075;28;88677;-54
2021/08/24 13:32:24;;;;;;;;;;;24.60;44.10;;;;;;5040556;28;87206;-50
2021/08/24 13:34:52;;;;;;;;;;;24.50;45.60;;;;;;5040765;28;88000;-53
2021/08/24 13:37:36;;;;;;;;;;;24.50;46.00;;;;;;5037636;28;86686;-51
2021/08/24 13:40:05;;;;;;;;;;;24.60;47.30;;;;;;5037985;28;87157;-54
2021/08/24 13:42:32;;;;;;;;;;;24.70;48.00;;;;;;5041955;28;88829;-58
2021/08/24 13:44:58;;;;;;;;;;;24.80;48.80;;;;;;5038615;28;89083;-53
2021/08/24 13:47:24;;;;;;;;;;;24.90;49.00;;;;;;5042262;28;88808;-48
2021/08/24 13:49:54;;;;;;;;;;;25.00;47.90;;;;;;5040652;27;89432;-47
2021/08/24 13:52:25;;;;;;;;;;;25.10;48.30;;;;;;5039853;28;87123;-48
2021/08/24 13:54:51;;;;;;;;;;;25.60;41.80;;;;;;5040054;28;87956;-54
2021/08/24 13:57:23;;;;;;;;;;;25.80;38.90;;;;;;5038624;28;87712;-59
2021/08/24 13:59:59;;;;;;;;;;;26.00;39.50;;;;;;5037556;28;87125;-50
2021/08/24 14:02:26;;;;;;;;;;;26.00;38.70;;;;;;5041410;28;90878;-58
2021/08/24 14:04:52;;;;;;;;;;;26.10;38.40;;;;;;5040323;28;87135;-49
2021/08/24 14:07:29;;;;;;;;;;;26.20;37.80;;;;;;5039134;28;87732;-52
2021/08/24 14:10:18;;;;;;;;;;;26.20;38.50;;;;;;5037124;28;89077;-54
2021/08/24 14:12:49;;;;;;;;;;;26.00;39.00;;;;;;5034166;27;88126;-52
2021/08/24 14:15:33;;;;;;;;;;;26.00;38.60;;;;;;5036998;28;87671;-51
2021/08/24 14:18:22;;;;;;;;;;;26.00;39.40;;;;;;5038508;28;90205;-51
2021/08/24 14:20:50;;;;;;;;;;;25.90;39.60;;;;;;5037760;27;87260;-54
2021/08/24 14:23:20;;;;;;;;;;;25.90;40.00;;;;;;5040110;28;87222;-50
2021/08/24 14:25:54;;;;;;;;;;;25.90;38.50;;;;;;5042938;28;88205;-57
2021/08/24 14:28:26;;;;;;;;;;;26.00;39.90;;;;;;5041900;28;87333;-50
2021/08/24 14:30:52;;;;;;;;;;;26.00;40.00;;;;;;5039262;28;87184;-50
2021/08/24 14:33:17;;;;;;;;;;;26.00;39.10;;;;;;5037634;28;87113;-51